Time;durP1;ratioP1;P1;durP2;ratioP2;P2;SDS_P1;SDS_P2;PMS_P1;PMS_P2;Temp;Humidity;BMP_temperature;BMP_pressure;BME280_temperature;BME280_humidity;BME280_pressure;Samples;Min_cycle;Max_cycle;Signal;HPM_P1;HPM_P2
2023/09/04 00:00:25;;;;;;;;;;;22.10;67.40;;;;;;5094478;28;19915;-56
2023/09/04 00:02:52;;;;;;;;;;;22.10;67.70;;;;;;5091950;28;21192;-56
2023/09/04 00:05:20;;;;;;;;;;;22.10;67.70;;;;;;5094658;28;19995;-55
2023/09/04 00:07:45;;;;;;;;;;;22.00;67.70;;;;;;5094273;28;19909;-56
2023/09/04 00:10:11;;;;;;;;;;;22.10;67.70;;;;;;5091593;28;19918;-56
2023/09/04 00:12:37;;;;;;;;;;;22.10;67.70;;;;;;5094193;28;19909;-56
2023/09/04 00:15:02;;;;;;;;;;;22.10;67.80;;;;;;5094202;28;19915;-56
2023/09/04 00:17:30;;;;;;;;;;;22.10;67.80;;;;;;5090705;28;19923;-55
2023/09/04 00:19:55;;;;;;;;;;;22.00;67.90;;;;;;5094155;28;19916;-56
2023/09/04 00:22:21;;;;;;;;;;;22.10;68.00;;;;;;5094188;28;19908;-56
2023/09/04 00:24:46;;;;;;;;;;;22.10;68.10;;;;;;5089680;28;19916;-56
2023/09/04 00:27:11;;;;;;;;;;;22.00;68.00;;;;;;5075268;28;19913;-56
2023/09/04 00:29:37;;;;;;;;;;;22.00;68.00;;;;;;5092643;28;19912;-56
2023/09/04 00:32:02;;;;;;;;;;;22.00;68.10;;;;;;5091742;28;19915;-56
2023/09/04 00:34:28;;;;;;;;;;;22.00;67.90;;;;;;5092298;28;20386;-56
2023/09/04 00:36:53;;;;;;;;;;;22.00;68.10;;;;;;5093677;28;19914;-56
2023/09/04 00:39:19;;;;;;;;;;;22.00;68.10;;;;;;5092020;28;19916;-56
2023/09/04 00:41:45;;;;;;;;;;;22.00;68.30;;;;;;5093692;28;19998;-56
2023/09/04 00:44:10;;;;;;;;;;;22.00;68.30;;;;;;5093589;28;19912;-56
2023/09/04 00:46:36;;;;;;;;;;;22.00;68.10;;;;;;5093530;28;20352;-56
2023/09/04 00:49:01;;;;;;;;;;;22.00;68.30;;;;;;5090143;28;19919;-55
2023/09/04 00:51:27;;;;;;;;;;;22.00;68.20;;;;;;5093607;28;20326;-55
2023/09/04 00:53:52;;;;;;;;;;;22.00;68.10;;;;;;5093417;28;19915;-56
2023/09/04 00:56:18;;;;;;;;;;;22.00;68.40;;;;;;5076363;28;19963;-56
2023/09/04 00:58:43;;;;;;;;;;;22.00;68.40;;;;;;5082797;28;19912;-56
2023/09/04 01:01:09;;;;;;;;;;;22.00;68.40;;;;;;5093416;28;20364;-56
2023/09/04 01:03:34;;;;;;;;;;;22.00;68.40;;;;;;5090935;28;19912;-55
2023/09/04 01:06:00;;;;;;;;;;;22.10;68.40;;;;;;5092458;28;20011;-56
2023/09/04 01:08:25;;;;;;;;;;;22.00;68.30;;;;;;5092162;28;19915;-56
2023/09/04 01:11:11;;;;;;;;;;;22.00;68.30;;;;;;5091792;28;19935;-56
2023/09/04 01:13:40;;;;;;;;;;;22.00;68.30;;;;;;5091746;28;19915;-55
2023/09/04 01:16:06;;;;;;;;;;;22.00;68.40;;;;;;5053037;28;20451;-56
2023/09/04 01:18:32;;;;;;;;;;;22.00;68.40;;;;;;5063974;28;20411;-55
2023/09/04 01:21:04;;;;;;;;;;;22.00;68.30;;;;;;5093109;28;19996;-56
2023/09/04 01:23:29;;;;;;;;;;;22.00;68.30;;;;;;5092908;28;19973;-56
2023/09/04 01:26:13;;;;;;;;;;;22.00;68.20;;;;;;5072210;28;20357;-56
2023/09/04 01:28:42;;;;;;;;;;;22.00;68.10;;;;;;5072262;28;20007;-56
2023/09/04 01:31:14;;;;;;;;;;;22.00;68.10;;;;;;5071551;28;19916;-56
2023/09/04 01:33:40;;;;;;;;;;;22.00;68.10;;;;;;5076702;28;19913;-56
2023/09/04 01:36:06;;;;;;;;;;;22.00;68.20;;;;;;5092974;28;20265;-56
2023/09/04 01:38:34;;;;;;;;;;;22.00;68.20;;;;;;5091712;28;19923;-55
2023/09/04 01:41:03;;;;;;;;;;;22.00;68.10;;;;;;5080537;28;19917;-56
2023/09/04 01:43:29;;;;;;;;;;;21.90;68.10;;;;;;5072735;28;19958;-55
2023/09/04 01:45:54;;;;;;;;;;;21.90;68.10;;;;;;5072865;28;19917;-56
2023/09/04 01:48:19;;;;;;;;;;;21.90;67.90;;;;;;5071848;28;19909;-56
2023/09/04 01:50:45;;;;;;;;;;;21.90;67.90;;;;;;5092445;28;19924;-56
2023/09/04 01:53:10;;;;;;;;;;;21.90;68.00;;;;;;5092957;28;20015;-56
2023/09/04 01:55:36;;;;;;;;;;;21.90;68.00;;;;;;5081570;28;19909;-56
2023/09/04 01:58:01;;;;;;;;;;;21.90;68.00;;;;;;5072593;28;19912;-56
2023/09/04 02:00:27;;;;;;;;;;;21.90;68.10;;;;;;5089519;28;20280;-56
2023/09/04 02:02:52;;;;;;;;;;;21.80;68.00;;;;;;5092981;28;19908;-56
2023/09/04 02:05:18;;;;;;;;;;;21.80;68.00;;;;;;5090336;28;20321;-56
2023/09/04 02:07:43;;;;;;;;;;;21.90;68.00;;;;;;5092660;28;20343;-56
2023/09/04 02:10:09;;;;;;;;;;;21.80;67.80;;;;;;5095135;28;19975;-56
2023/09/04 02:12:34;;;;;;;;;;;21.90;67.90;;;;;;5095288;28;19912;-56
2023/09/04 02:15:00;;;;;;;;;;;21.90;67.90;;;;;;5096487;28;19955;-56
2023/09/04 02:17:25;;;;;;;;;;;21.80;67.70;;;;;;5096284;28;19908;-56
2023/09/04 02:19:51;;;;;;;;;;;21.80;67.80;;;;;;5093977;28;19943;-56
2023/09/04 02:22:17;;;;;;;;;;;21.80;67.80;;;;;;5096415;28;19970;-56
2023/09/04 02:24:44;;;;;;;;;;;21.80;67.80;;;;;;5092376;28;19908;-56
2023/09/04 02:27:10;;;;;;;;;;;21.80;67.80;;;;;;5076034;28;19913;-56
2023/09/04 02:29:35;;;;;;;;;;;21.80;67.70;;;;;;5081827;28;19912;-56
2023/09/04 02:32:01;;;;;;;;;;;21.80;67.70;;;;;;5095216;28;19912;-56
2023/09/04 02:34:26;;;;;;;;;;;21.80;67.70;;;;;;5094153;28;19912;-56
2023/09/04 02:36:52;;;;;;;;;;;21.80;67.60;;;;;;5096050;28;20673;-56
2023/09/04 02:39:17;;;;;;;;;;;21.80;67.50;;;;;;5096029;28;19912;-56
2023/09/04 02:41:42;;;;;;;;;;;21.80;67.50;;;;;;5093071;28;20247;-56
2023/09/04 02:44:08;;;;;;;;;;;21.80;67.40;;;;;;5094993;28;19912;-56
2023/09/04 02:46:33;;;;;;;;;;;21.80;67.40;;;;;;5096113;28;20132;-56
2023/09/04 02:48:59;;;;;;;;;;;21.80;67.40;;;;;;5095859;28;19909;-56
2023/09/04 02:51:24;;;;;;;;;;;21.80;67.40;;;;;;5093445;28;19924;-57
2023/09/04 02:53:50;;;;;;;;;;;21.80;67.40;;;;;;5095634;28;19912;-56
2023/09/04 02:56:15;;;;;;;;;;;21.80;67.30;;;;;;5078871;28;19908;-56
2023/09/04 02:58:41;;;;;;;;;;;21.80;67.30;;;;;;5075341;28;20022;-56
2023/09/04 03:01:06;;;;;;;;;;;21.80;67.30;;;;;;5074721;28;19919;-56
2023/09/04 03:03:32;;;;;;;;;;;21.80;67.30;;;;;;5075324;28;19974;-56
2023/09/04 03:06:05;;;;;;;;;;;21.80;67.20;;;;;;5086189;28;19973;-55
2023/09/04 03:08:31;;;;;;;;;;;21.80;67.20;;;;;;5095398;28;19965;-56
2023/09/04 03:10:56;;;;;;;;;;;21.80;67.20;;;;;;5095474;28;20314;-56
2023/09/04 03:13:22;;;;;;;;;;;21.80;67.20;;;;;;5077940;28;19912;-56
2023/09/04 03:15:47;;;;;;;;;;;21.70;67.20;;;;;;5075115;28;19909;-55
2023/09/04 03:18:13;;;;;;;;;;;21.70;67.10;;;;;;5074087;28;19920;-55
2023/09/04 03:20:38;;;;;;;;;;;21.70;67.10;;;;;;5086458;28;19916;-56
2023/09/04 03:23:04;;;;;;;;;;;21.70;67.20;;;;;;5095149;28;19908;-56
2023/09/04 03:25:29;;;;;;;;;;;21.70;67.00;;;;;;5084795;28;20346;-56
2023/09/04 03:27:55;;;;;;;;;;;21.70;67.00;;;;;;5074931;28;19915;-55
2023/09/04 03:30:20;;;;;;;;;;;21.70;66.90;;;;;;5085501;28;19916;-56
2023/09/04 03:32:49;;;;;;;;;;;21.70;66.90;;;;;;5094905;28;19908;-56
2023/09/04 03:35:16;;;;;;;;;;;21.70;66.80;;;;;;5092518;28;20299;-56
2023/09/04 03:37:42;;;;;;;;;;;21.70;66.90;;;;;;5076908;28;19978;-56
2023/09/04 03:40:37;;;;;;;;;;;21.70;66.90;;;;;;5094859;28;20364;-56
2023/09/04 03:43:02;;;;;;;;;;;21.70;66.90;;;;;;5058327;28;19916;-56
2023/09/04 03:45:31;;;;;;;;;;;21.70;66.90;;;;;;5074719;28;20330;-56
2023/09/04 03:47:57;;;;;;;;;;;21.70;67.60;;;;;;5074466;28;20380;-55
2023/09/04 03:50:22;;;;;;;;;;;21.70;66.80;;;;;;5085445;28;19920;-56
2023/09/04 03:52:48;;;;;;;;;;;21.70;66.90;;;;;;5092401;28;20023;-55
2023/09/04 03:55:13;;;;;;;;;;;21.70;66.90;;;;;;5086270;28;19909;-56
2023/09/04 03:57:42;;;;;;;;;;;21.70;66.90;;;;;;5074140;28;20025;-56
2023/09/04 04:00:15;;;;;;;;;;;21.60;66.70;;;;;;5074068;28;20396;-56
2023/09/04 04:02:41;;;;;;;;;;;21.70;67.00;;;;;;5100424;28;19913;-56
2023/09/04 04:05:06;;;;;;;;;;;21.60;66.80;;;;;;5092177;28;19912;-56
2023/09/04 04:07:32;;;;;;;;;;;21.60;66.90;;;;;;5094304;28;20357;-56
2023/09/04 04:09:57;;;;;;;;;;;21.60;66.80;;;;;;5094174;28;19908;-56
2023/09/04 04:12:24;;;;;;;;;;;21.60;66.80;;;;;;5090892;28;19912;-56
2023/09/04 04:14:53;;;;;;;;;;;21.60;66.80;;;;;;5093974;28;19908;-57
2023/09/04 04:17:18;;;;;;;;;;;21.60;66.70;;;;;;5093995;28;20057;-56
2023/09/04 04:19:44;;;;;;;;;;;21.60;66.70;;;;;;5090736;28;20003;-56
2023/09/04 04:22:09;;;;;;;;;;;21.60;66.60;;;;;;5094058;28;19915;-56
2023/09/04 04:24:35;;;;;;;;;;;21.60;66.60;;;;;;5091352;28;19912;-56
2023/09/04 04:27:00;;;;;;;;;;;21.60;66.60;;;;;;5073674;28;19913;-56
2023/09/04 04:29:26;;;;;;;;;;;21.60;66.50;;;;;;5072192;28;19915;-55
2023/09/04 04:31:52;;;;;;;;;;;21.50;66.40;;;;;;5087439;28;19916;-56
2023/09/04 04:34:17;;;;;;;;;;;21.50;66.40;;;;;;5093803;28;19912;-56
2023/09/04 04:36:43;;;;;;;;;;;21.60;66.50;;;;;;5091444;28;19916;-56
2023/09/04 04:39:08;;;;;;;;;;;21.60;66.50;;;;;;5090433;28;20295;-56
2023/09/04 04:41:33;;;;;;;;;;;21.50;66.50;;;;;;5093571;28;20070;-56
2023/09/04 04:43:59;;;;;;;;;;;21.50;66.50;;;;;;5093537;28;19916;-56
2023/09/04 04:46:25;;;;;;;;;;;21.50;66.50;;;;;;5093417;28;19908;-56
2023/09/04 04:48:50;;;;;;;;;;;21.50;66.50;;;;;;5089248;28;20018;-56
2023/09/04 04:51:15;;;;;;;;;;;21.50;66.60;;;;;;5090819;28;19920;-56
2023/09/04 04:53:41;;;;;;;;;;;21.50;66.40;;;;;;5093439;28;19912;-55
2023/09/04 04:56:06;;;;;;;;;;;21.50;66.40;;;;;;5077856;28;19908;-56
2023/09/04 04:58:32;;;;;;;;;;;21.50;66.40;;;;;;5072355;28;19939;-56
2023/09/04 05:00:57;;;;;;;;;;;21.60;66.50;;;;;;5073210;28;19958;-56
2023/09/04 05:03:23;;;;;;;;;;;21.60;66.40;;;;;;5073056;28;20003;-56
2023/09/04 05:05:48;;;;;;;;;;;21.60;66.40;;;;;;5077555;28;19973;-56
2023/09/04 05:08:14;;;;;;;;;;;21.50;66.40;;;;;;5093142;28;19912;-56
2023/09/04 05:10:39;;;;;;;;;;;21.50;66.40;;;;;;5093249;28;19914;-56
2023/09/04 05:13:05;;;;;;;;;;;21.50;66.40;;;;;;5092976;28;19908;-56
2023/09/04 05:15:30;;;;;;;;;;;21.50;66.40;;;;;;5088821;28;19944;-56
2023/09/04 05:17:55;;;;;;;;;;;21.50;66.40;;;;;;5079215;28;19923;-56
2023/09/04 05:20:21;;;;;;;;;;;21.60;66.40;;;;;;5090204;28;19920;-55
2023/09/04 05:22:46;;;;;;;;;;;21.50;66.30;;;;;;5092669;28;20054;-56
2023/09/04 05:25:12;;;;;;;;;;;21.60;66.30;;;;;;5085375;28;19956;-56
2023/09/04 05:27:37;;;;;;;;;;;21.60;66.30;;;;;;5070946;28;19909;-56
2023/09/04 05:30:03;;;;;;;;;;;21.50;66.20;;;;;;5092916;28;19913;-56
2023/09/04 05:32:29;;;;;;;;;;;21.60;66.30;;;;;;5091865;28;19995;-56
2023/09/04 05:34:54;;;;;;;;;;;21.60;66.30;;;;;;5092784;28;19912;-56
2023/09/04 05:37:20;;;;;;;;;;;21.50;66.20;;;;;;5089762;28;19912;-56
2023/09/04 05:39:46;;;;;;;;;;;21.60;66.40;;;;;;5082687;28;20307;-55
2023/09/04 05:42:11;;;;;;;;;;;21.50;66.30;;;;;;5072937;28;19955;-56
2023/09/04 05:44:37;;;;;;;;;;;21.50;66.30;;;;;;5092912;28;19943;-56
2023/09/04 05:47:03;;;;;;;;;;;21.50;66.40;;;;;;5095681;28;19958;-56
2023/09/04 05:49:28;;;;;;;;;;;21.50;66.50;;;;;;5096687;28;19970;-56
2023/09/04 05:51:54;;;;;;;;;;;21.50;66.50;;;;;;5094544;28;20280;-56
2023/09/04 05:54:20;;;;;;;;;;;21.50;66.50;;;;;;5096305;28;20371;-56
2023/09/04 05:56:45;;;;;;;;;;;21.50;66.50;;;;;;5076444;28;19916;-55
2023/09/04 05:59:11;;;;;;;;;;;21.50;66.50;;;;;;5076064;28;19916;-55
2023/09/04 06:01:37;;;;;;;;;;;21.40;66.50;;;;;;5094432;28;19919;-56
2023/09/04 06:04:02;;;;;;;;;;;21.50;66.60;;;;;;5096842;28;20280;-56
2023/09/04 06:06:27;;;;;;;;;;;21.50;66.60;;;;;;5094598;28;20280;-56
2023/09/04 06:08:53;;;;;;;;;;;21.40;66.50;;;;;;5096671;28;20358;-56
2023/09/04 06:11:18;;;;;;;;;;;21.50;66.70;;;;;;5093636;28;19912;-56
2023/09/04 06:13:44;;;;;;;;;;;21.40;66.60;;;;;;5096481;28;20422;-56
2023/09/04 06:16:10;;;;;;;;;;;21.40;66.70;;;;;;5096351;28;19958;-56
2023/09/04 06:18:35;;;;;;;;;;;21.40;66.80;;;;;;5096450;28;19912;-55
2023/09/04 06:21:01;;;;;;;;;;;21.40;66.90;;;;;;5096251;28;19912;-55
2023/09/04 06:23:26;;;;;;;;;;;21.40;66.90;;;;;;5093922;28;20376;-56
2023/09/04 06:25:52;;;;;;;;;;;21.40;67.00;;;;;;5088309;28;19960;-55
2023/09/04 06:28:17;;;;;;;;;;;21.40;66.90;;;;;;5096554;28;19909;-55
2023/09/04 06:30:44;;;;;;;;;;;21.40;66.80;;;;;;5096418;28;20058;-56
2023/09/04 06:33:10;;;;;;;;;;;21.40;67.00;;;;;;5093377;28;20002;-56
2023/09/04 06:35:35;;;;;;;;;;;21.40;67.00;;;;;;5094707;28;19950;-56
2023/09/04 06:38:01;;;;;;;;;;;21.40;66.80;;;;;;5093698;28;19999;-57
2023/09/04 06:40:26;;;;;;;;;;;21.40;67.10;;;;;;5096040;28;19908;-56
2023/09/04 06:42:55;;;;;;;;;;;21.40;67.00;;;;;;5095929;28;20049;-56
2023/09/04 06:45:20;;;;;;;;;;;21.40;67.00;;;;;;5092227;28;20373;-56
2023/09/04 06:47:46;;;;;;;;;;;21.40;67.10;;;;;;5094537;28;19988;-56
2023/09/04 06:50:11;;;;;;;;;;;21.40;67.00;;;;;;5095792;28;19919;-56
2023/09/04 06:52:37;;;;;;;;;;;21.40;67.00;;;;;;5092411;28;19919;-56
2023/09/04 06:55:03;;;;;;;;;;;21.40;67.30;;;;;;5089079;28;19908;-56
2023/09/04 06:57:28;;;;;;;;;;;21.40;67.20;;;;;;5075529;28;20453;-56
2023/09/04 06:59:57;;;;;;;;;;;21.40;67.00;;;;;;5075264;28;19909;-56
2023/09/04 07:02:23;;;;;;;;;;;21.40;67.30;;;;;;5080601;28;20350;-56
2023/09/04 07:04:48;;;;;;;;;;;21.50;67.50;;;;;;5095655;28;19908;-56
2023/09/04 07:07:14;;;;;;;;;;;21.40;67.50;;;;;;5093488;28;19912;-56
2023/09/04 07:09:39;;;;;;;;;;;21.40;67.90;;;;;;5093481;28;19958;-56
2023/09/04 07:12:05;;;;;;;;;;;21.40;67.90;;;;;;5077259;28;20430;-56
2023/09/04 07:14:31;;;;;;;;;;;21.40;67.60;;;;;;5094251;28;20011;-56
2023/09/04 07:16:56;;;;;;;;;;;21.40;67.90;;;;;;5095645;28;19908;-55
2023/09/04 07:19:21;;;;;;;;;;;21.40;67.90;;;;;;5095039;28;19999;-56
2023/09/04 07:21:47;;;;;;;;;;;21.40;67.90;;;;;;5094006;28;19908;-56
2023/09/04 07:24:13;;;;;;;;;;;21.40;67.90;;;;;;5092962;28;19919;-56
2023/09/04 07:26:38;;;;;;;;;;;21.40;67.90;;;;;;5075358;28;20007;-55
2023/09/04 07:29:03;;;;;;;;;;;21.40;68.30;;;;;;5074839;28;19908;-55
2023/09/04 07:31:29;;;;;;;;;;;21.40;68.30;;;;;;5074711;28;19915;-56
2023/09/04 07:33:55;;;;;;;;;;;21.40;68.50;;;;;;5088019;28;20364;-56
2023/09/04 07:36:20;;;;;;;;;;;21.40;69.10;;;;;;5095197;28;19908;-56
2023/09/04 07:38:46;;;;;;;;;;;21.40;69.20;;;;;;5091763;28;20368;-56
2023/09/04 07:41:11;;;;;;;;;;;21.40;69.10;;;;;;5094827;28;20003;-56
2023/09/04 07:43:37;;;;;;;;;;;21.40;68.60;;;;;;5090864;28;19982;-56
2023/09/04 07:46:02;;;;;;;;;;;21.40;68.80;;;;;;5093713;28;19919;-56
2023/09/04 07:48:28;;;;;;;;;;;21.40;68.80;;;;;;5094618;28;19908;-55
2023/09/04 07:50:53;;;;;;;;;;;21.40;69.20;;;;;;5094494;28;20003;-56
2023/09/04 07:53:19;;;;;;;;;;;21.40;69.10;;;;;;5089560;28;20011;-55
2023/09/04 07:55:45;;;;;;;;;;;21.40;68.50;;;;;;5090551;28;19912;-56
2023/09/04 07:58:10;;;;;;;;;;;21.40;69.00;;;;;;5094368;28;19919;-56
2023/09/04 08:00:36;;;;;;;;;;;21.40;68.90;;;;;;5094409;28;19908;-55
2023/09/04 08:03:02;;;;;;;;;;;21.40;68.40;;;;;;5094582;28;20073;-56
2023/09/04 08:05:28;;;;;;;;;;;21.40;68.80;;;;;;5092012;28;19916;-55
2023/09/04 08:07:53;;;;;;;;;;;21.40;68.80;;;;;;5092250;28;19915;-55
2023/09/04 08:10:19;;;;;;;;;;;21.40;69.10;;;;;;5093438;28;19915;-55
2023/09/04 08:12:44;;;;;;;;;;;21.50;69.20;;;;;;5094065;28;20010;-55
2023/09/04 08:15:10;;;;;;;;;;;21.40;68.70;;;;;;5092505;28;19967;-56
2023/09/04 08:17:36;;;;;;;;;;;21.40;69.00;;;;;;5094076;28;20282;-56
2023/09/04 08:20:01;;;;;;;;;;;21.50;68.80;;;;;;5094362;28;19912;-57
2023/09/04 08:22:27;;;;;;;;;;;21.60;68.80;;;;;;5093961;28;19912;-57
2023/09/04 08:24:55;;;;;;;;;;;21.50;68.40;;;;;;5084471;28;19960;-54
2023/09/04 08:27:20;;;;;;;;;;;21.60;68.70;;;;;;5073502;28;19908;-54
2023/09/04 08:29:46;;;;;;;;;;;21.60;68.50;;;;;;5073535;28;20329;-55
2023/09/04 08:32:11;;;;;;;;;;;21.60;68.40;;;;;;5072321;28;19947;-55
2023/09/04 08:34:37;;;;;;;;;;;21.70;68.20;;;;;;5081985;28;19912;-54
2023/09/04 08:37:02;;;;;;;;;;;21.70;68.30;;;;;;5093869;28;19989;-55
2023/09/04 08:39:28;;;;;;;;;;;21.70;68.20;;;;;;5091599;28;19962;-55
2023/09/04 08:41:54;;;;;;;;;;;21.70;68.20;;;;;;5093764;28;19915;-55
2023/09/04 08:44:19;;;;;;;;;;;21.70;68.20;;;;;;5090979;28;19965;-55
2023/09/04 08:46:45;;;;;;;;;;;21.80;68.30;;;;;;5093775;28;19915;-55
2023/09/04 08:49:10;;;;;;;;;;;21.90;67.80;;;;;;5093264;28;20291;-55
2023/09/04 08:51:36;;;;;;;;;;;22.00;67.60;;;;;;5090277;28;19916;-55
2023/09/04 08:54:01;;;;;;;;;;;21.90;67.40;;;;;;5089810;28;19927;-55
2023/09/04 08:56:28;;;;;;;;;;;22.00;67.30;;;;;;5074900;28;19912;-55
2023/09/04 08:58:53;;;;;;;;;;;22.00;67.00;;;;;;5072893;28;20360;-55
2023/09/04 09:01:19;;;;;;;;;;;22.10;66.70;;;;;;5071239;28;19974;-55
2023/09/04 09:03:44;;;;;;;;;;;22.00;66.90;;;;;;5090623;28;20352;-55
2023/09/04 09:06:10;;;;;;;;;;;22.00;67.20;;;;;;5091859;28;20333;-55
2023/09/04 09:08:35;;;;;;;;;;;22.00;67.20;;;;;;5091976;28;20275;-55
2023/09/04 09:11:03;;;;;;;;;;;22.00;66.90;;;;;;5090988;28;19916;-55
2023/09/04 09:13:28;;;;;;;;;;;22.10;66.60;;;;;;5093052;28;19943;-56
2023/09/04 09:15:54;;;;;;;;;;;22.20;66.70;;;;;;5092932;28;19922;-55
2023/09/04 09:18:38;;;;;;;;;;;22.10;66.90;;;;;;5092439;28;19913;-56
2023/09/04 09:21:43;;;;;;;;;;;22.10;66.80;;;;;;5090378;28;20390;-55
2023/09/04 09:24:12;;;;;;;;;;;22.10;66.80;;;;;;5009360;28;19918;-57
2023/09/04 09:26:38;;;;;;;;;;;22.20;66.90;;;;;;4991326;28;20018;-55
2023/09/04 09:29:04;;;;;;;;;;;22.10;66.80;;;;;;5030694;28;19948;-54
2023/09/04 09:31:30;;;;;;;;;;;22.20;66.80;;;;;;5091627;28;19988;-55
2023/09/04 09:33:55;;;;;;;;;;;22.20;66.80;;;;;;5091757;28;19999;-55
2023/09/04 09:36:21;;;;;;;;;;;22.20;66.50;;;;;;5091711;28;19920;-55
2023/09/04 09:38:46;;;;;;;;;;;22.30;66.50;;;;;;5092714;28;20279;-55
2023/09/04 09:41:15;;;;;;;;;;;22.40;65.90;;;;;;5090562;28;19919;-55
2023/09/04 09:43:40;;;;;;;;;;;22.50;65.30;;;;;;5092837;28;19920;-55
2023/09/04 09:46:08;;;;;;;;;;;22.50;64.90;;;;;;5092850;28;20364;-55
2023/09/04 09:48:35;;;;;;;;;;;22.50;65.20;;;;;;5093107;28;20042;-55
2023/09/04 09:51:00;;;;;;;;;;;22.40;65.40;;;;;;5089993;28;19921;-55
2023/09/04 09:53:26;;;;;;;;;;;22.40;65.60;;;;;;5088453;28;19919;-55
2023/09/04 09:55:51;;;;;;;;;;;22.40;65.30;;;;;;5087283;28;19916;-55
2023/09/04 09:58:17;;;;;;;;;;;22.50;64.30;;;;;;5092555;28;19919;-55
2023/09/04 10:00:42;;;;;;;;;;;22.60;64.00;;;;;;5088613;28;20003;-55
2023/09/04 10:03:08;;;;;;;;;;;22.70;63.90;;;;;;5086815;28;19919;-55
2023/09/04 10:05:33;;;;;;;;;;;22.70;63.40;;;;;;5092518;28;19909;-55
2023/09/04 10:07:59;;;;;;;;;;;22.70;63.60;;;;;;5092517;28;19908;-55
2023/09/04 10:10:25;;;;;;;;;;;22.70;62.90;;;;;;5090710;28;19913;-55
2023/09/04 10:12:52;;;;;;;;;;;22.60;62.80;;;;;;5092578;28;19908;-55
2023/09/04 10:15:20;;;;;;;;;;;22.70;62.90;;;;;;5092418;28;20002;-56
2023/09/04 10:17:46;;;;;;;;;;;22.70;63.20;;;;;;5092493;28;19953;-55
2023/09/04 10:20:12;;;;;;;;;;;22.70;63.00;;;;;;5085226;28;19923;-55
2023/09/04 10:22:38;;;;;;;;;;;22.70;63.40;;;;;;5091570;28;19912;-55
2023/09/04 10:25:09;;;;;;;;;;;22.70;63.50;;;;;;5085214;28;19915;-55
2023/09/04 10:27:37;;;;;;;;;;;22.70;64.20;;;;;;5071020;28;19912;-55
2023/09/04 10:30:05;;;;;;;;;;;22.70;63.50;;;;;;5077435;28;20271;-55
2023/09/04 10:32:30;;;;;;;;;;;22.70;62.40;;;;;;5096176;28;19915;-55
2023/09/04 10:34:56;;;;;;;;;;;22.80;62.10;;;;;;5094739;28;19912;-55
2023/09/04 10:37:21;;;;;;;;;;;22.90;62.90;;;;;;5095975;28;20008;-55
2023/09/04 10:39:47;;;;;;;;;;;22.80;62.60;;;;;;5090480;28;19917;-55
2023/09/04 10:42:12;;;;;;;;;;;22.80;63.00;;;;;;5075776;28;20321;-55
2023/09/04 10:44:44;;;;;;;;;;;22.90;62.30;;;;;;5075865;28;20361;-55
2023/09/04 10:47:10;;;;;;;;;;;22.90;62.60;;;;;;5075682;28;20383;-55
2023/09/04 10:49:35;;;;;;;;;;;23.00;62.50;;;;;;5074835;28;20011;-55
2023/09/04 10:52:01;;;;;;;;;;;23.00;62.30;;;;;;5100777;28;19923;-55
2023/09/04 10:54:27;;;;;;;;;;;23.10;62.50;;;;;;5094180;28;19912;-55
2023/09/04 10:56:52;;;;;;;;;;;23.00;62.30;;;;;;5073883;28;19909;-55
2023/09/04 10:59:18;;;;;;;;;;;23.00;62.30;;;;;;5075271;28;19924;-55
2023/09/04 11:01:43;;;;;;;;;;;23.10;62.00;;;;;;5074417;28;19912;-55
2023/09/04 11:04:09;;;;;;;;;;;23.20;62.00;;;;;;5081178;28;20004;-55
2023/09/04 11:06:37;;;;;;;;;;;23.10;62.40;;;;;;5095683;28;19962;-55
2023/09/04 11:09:03;;;;;;;;;;;23.10;61.90;;;;;;5095559;28;19943;-55
2023/09/04 11:11:29;;;;;;;;;;;23.10;60.90;;;;;;5092746;28;19955;-55
2023/09/04 11:13:55;;;;;;;;;;;23.20;60.70;;;;;;5095438;28;19912;-56
2023/09/04 11:16:20;;;;;;;;;;;23.30;60.40;;;;;;5095508;28;20421;-55
2023/09/04 11:18:46;;;;;;;;;;;23.30;60.70;;;;;;5095212;28;20011;-55
2023/09/04 11:21:11;;;;;;;;;;;23.30;60.60;;;;;;5091477;28;19912;-55
2023/09/04 11:23:37;;;;;;;;;;;23.30;59.80;;;;;;5093800;28;19912;-56
2023/09/04 11:26:02;;;;;;;;;;;23.40;59.80;;;;;;5086052;28;19908;-55
2023/09/04 11:28:28;;;;;;;;;;;23.40;59.80;;;;;;5094220;28;19916;-55
2023/09/04 11:30:54;;;;;;;;;;;23.40;60.00;;;;;;5092371;28;19908;-55
2023/09/04 11:33:20;;;;;;;;;;;23.30;60.80;;;;;;5094902;28;19935;-55
2023/09/04 11:35:46;;;;;;;;;;;23.30;60.20;;;;;;5094960;28;19908;-55
2023/09/04 11:38:24;;;;;;;;;;;23.40;59.90;;;;;;5094968;28;19923;-55
2023/09/04 11:40:49;;;;;;;;;;;23.40;59.80;;;;;;5092402;28;19938;-55
2023/09/04 11:43:15;;;;;;;;;;;23.40;59.60;;;;;;5093028;28;20026;-55
2023/09/04 11:45:40;;;;;;;;;;;23.50;59.40;;;;;;5094736;28;19914;-55
2023/09/04 11:48:06;;;;;;;;;;;23.50;59.30;;;;;;5094867;28;19908;-55
2023/09/04 11:50:31;;;;;;;;;;;23.50;59.50;;;;;;5092981;28;19924;-55
2023/09/04 11:52:58;;;;;;;;;;;23.70;58.80;;;;;;5094043;28;19965;-54
2023/09/04 11:55:24;;;;;;;;;;;23.70;59.10;;;;;;5085069;28;20261;-55
2023/09/04 11:57:49;;;;;;;;;;;23.70;58.40;;;;;;5091759;28;20284;-55
2023/09/04 12:00:15;;;;;;;;;;;23.70;58.40;;;;;;5094530;28;19913;-55
2023/09/04 12:02:42;;;;;;;;;;;23.80;58.40;;;;;;5092993;28;19908;-55
2023/09/04 12:05:08;;;;;;;;;;;23.80;58.50;;;;;;5094345;28;19912;-56
2023/09/04 12:07:33;;;;;;;;;;;23.80;58.70;;;;;;5094385;28;19908;-55
2023/09/04 12:09:59;;;;;;;;;;;23.70;59.20;;;;;;5094229;28;19931;-55
2023/09/04 12:12:25;;;;;;;;;;;23.80;58.70;;;;;;5091472;28;19908;-55
2023/09/04 12:14:50;;;;;;;;;;;23.90;58.60;;;;;;5092964;28;19920;-55
2023/09/04 12:17:15;;;;;;;;;;;23.80;59.00;;;;;;5094315;28;19908;-55
2023/09/04 12:19:44;;;;;;;;;;;23.80;59.50;;;;;;5092699;28;19916;-55
2023/09/04 12:22:13;;;;;;;;;;;23.70;59.50;;;;;;5091226;28;19908;-56
2023/09/04 12:24:38;;;;;;;;;;;23.80;59.50;;;;;;5089466;28;19913;-56
2023/09/04 12:27:04;;;;;;;;;;;23.80;59.50;;;;;;5071981;28;19916;-55
2023/09/04 12:29:29;;;;;;;;;;;23.80;59.80;;;;;;5073590;28;19913;-55
2023/09/04 12:31:54;;;;;;;;;;;23.80;59.60;;;;;;5073530;28;20260;-56
2023/09/04 12:34:24;;;;;;;;;;;23.90;59.80;;;;;;5073577;28;19908;-55
2023/09/04 12:36:53;;;;;;;;;;;23.80;60.00;;;;;;5088107;28;19951;-55
2023/09/04 12:39:19;;;;;;;;;;;23.80;59.90;;;;;;5073321;28;19920;-55
2023/09/04 12:41:51;;;;;;;;;;;23.90;59.90;;;;;;5076028;28;19915;-56
2023/09/04 12:44:17;;;;;;;;;;;23.80;59.80;;;;;;5093557;28;19920;-55
2023/09/04 12:46:42;;;;;;;;;;;24.00;59.90;;;;;;5093526;28;19908;-56
2023/09/04 12:49:08;;;;;;;;;;;23.90;60.00;;;;;;5084684;28;19995;-56
2023/09/04 12:51:33;;;;;;;;;;;23.90;59.90;;;;;;5079918;28;19912;-56
2023/09/04 12:53:59;;;;;;;;;;;24.00;59.90;;;;;;5073021;28;19908;-56
2023/09/04 12:56:24;;;;;;;;;;;23.90;60.00;;;;;;5072280;28;19908;-56
2023/09/04 12:58:50;;;;;;;;;;;24.00;59.80;;;;;;5089710;28;19969;-56
2023/09/04 13:01:15;;;;;;;;;;;24.10;59.60;;;;;;5093383;28;20011;-56
2023/09/04 13:03:41;;;;;;;;;;;24.20;59.50;;;;;;5093339;28;19955;-56
2023/09/04 13:06:07;;;;;;;;;;;24.20;59.30;;;;;;5093329;28;20001;-56
2023/09/04 13:08:32;;;;;;;;;;;24.20;59.30;;;;;;5090832;28;19923;-56
2023/09/04 13:10:58;;;;;;;;;;;24.20;59.30;;;;;;5093242;28;19908;-56
2023/09/04 13:13:23;;;;;;;;;;;24.20;59.40;;;;;;5090634;28;19912;-56
2023/09/04 13:15:49;;;;;;;;;;;24.20;59.40;;;;;;5093138;28;19964;-56
2023/09/04 13:18:14;;;;;;;;;;;24.30;59.30;;;;;;5093013;28;19912;-56
2023/09/04 13:20:40;;;;;;;;;;;24.20;59.10;;;;;;5077575;28;19919;-56
2023/09/04 13:23:05;;;;;;;;;;;24.20;59.60;;;;;;5073113;28;19908;-56
2023/09/04 13:25:31;;;;;;;;;;;24.20;58.90;;;;;;5070808;28;19908;-56
2023/09/04 13:27:56;;;;;;;;;;;24.20;59.00;;;;;;5078804;28;20057;-56
2023/09/04 13:30:21;;;;;;;;;;;24.30;59.40;;;;;;5092948;28;19918;-56
2023/09/04 13:32:47;;;;;;;;;;;24.20;59.20;;;;;;5093243;28;19908;-56
2023/09/04 13:35:12;;;;;;;;;;;24.30;58.60;;;;;;5092906;28;19994;-56
2023/09/04 13:37:38;;;;;;;;;;;24.30;58.60;;;;;;5091337;28;19954;-56
2023/09/04 13:40:04;;;;;;;;;;;24.30;58.60;;;;;;5088812;28;19923;-56
2023/09/04 13:42:30;;;;;;;;;;;24.30;58.50;;;;;;5087981;28;19912;-55
2023/09/04 13:44:57;;;;;;;;;;;24.30;58.60;;;;;;5092953;28;19909;-56
2023/09/04 13:47:23;;;;;;;;;;;24.30;58.60;;;;;;5092886;28;19970;-56
2023/09/04 13:49:49;;;;;;;;;;;24.40;57.80;;;;;;5092627;28;19924;-56
2023/09/04 13:52:14;;;;;;;;;;;24.40;57.70;;;;;;5091359;28;19919;-56
2023/09/04 13:54:40;;;;;;;;;;;24.50;57.50;;;;;;5089215;28;19920;-56
2023/09/04 13:57:05;;;;;;;;;;;24.50;57.10;;;;;;5071307;28;19915;-56
2023/09/04 13:59:31;;;;;;;;;;;24.60;57.30;;;;;;5087566;28;19958;-56
2023/09/04 14:01:56;;;;;;;;;;;24.50;57.60;;;;;;5092606;28;19912;-56
2023/09/04 14:04:22;;;;;;;;;;;24.40;57.70;;;;;;5090539;28;19924;-56
2023/09/04 14:06:49;;;;;;;;;;;24.40;57.80;;;;;;5096491;28;19975;-56
2023/09/04 14:09:14;;;;;;;;;;;24.30;57.80;;;;;;5096775;28;19984;-57